sensor_id;sensor_type;location;lat;lon;timestamp;pressure;altitude;pressure_sealevel;temperature;humidity
20017;BME280;10169;42.664;23.610;2023-11-22T00:01:37;94644.31;;;5.43;100.00
20017;BME280;10169;42.664;23.610;2023-11-22T00:03:38;94642.63;;;5.48;100.00
20017;BME280;10169;42.664;23.610;2023-11-22T00:05:38;94635.56;;;5.60;100.00
20017;BME280;10169;42.664;23.610;2023-11-22T00:07:38;94628.25;;;5.62;100.00
20017;BME280;10169;42.664;23.610;2023-11-22T00:09:39;94637.72;;;5.63;100.00
20017;BME280;10169;42.664;23.610;2023-11-22T00:11:39;94634.13;;;5.76;100.00
20017;BME280;10169;42.664;23.610;2023-11-22T00:13:40;94636.78;;;5.88;100.00
20017;BME280;10169;42.664;23.610;2023-11-22T00:15:40;94638.63;;;5.87;100.00
20017;BME280;10169;42.664;23.610;2023-11-22T00:17:40;94640.47;;;5.87;100.00
20017;BME280;10169;42.664;23.610;2023-11-22T00:19:41;94633.94;;;5.89;100.00
20017;BME280;10169;42.664;23.610;2023-11-22T00:21:41;94642.06;;;5.88;100.00
20017;BME280;10169;42.664;23.610;2023-11-22T00:23:41;94638.16;;;5.90;100.00
20017;BME280;10169;42.664;23.610;2023-11-22T00:25:43;94631.41;;;5.94;100.00
20017;BME280;10169;42.664;23.610;2023-11-22T00:27:43;94628.78;;;6.06;100.00
20017;BME280;10169;42.664;23.610;2023-11-22T00:29:43;94627.28;;;6.10;100.00
20017;BME280;10169;42.664;23.610;2023-11-22T00:31:43;94605.63;;;5.96;100.00
20017;BME280;10169;42.664;23.610;2023-11-22T00:33:44;94596.78;;;5.91;100.00
20017;BME280;10169;42.664;23.610;2023-11-22T00:35:45;94590.94;;;5.89;100.00
20017;BME280;10169;42.664;23.610;2023-11-22T00:37:45;94614.91;;;5.99;100.00
20017;BME280;10169;42.664;23.610;2023-11-22T00:39:46;94606.09;;;5.93;100.00
20017;BME280;10169;42.664;23.610;2023-11-22T00:41:46;94599.44;;;5.91;100.00
20017;BME280;10169;42.664;23.610;2023-11-22T00:43:46;94589.69;;;5.91;100.00
20017;BME280;10169;42.664;23.610;2023-11-22T00:45:47;94605.31;;;6.16;100.00
20017;BME280;10169;42.664;23.610;2023-11-22T00:47:48;94603.44;;;6.39;100.00
20017;BME280;10169;42.664;23.610;2023-11-22T00:49:48;94607.59;;;6.58;100.00
20017;BME280;10169;42.664;23.610;2023-11-22T00:51:48;94599.66;;;6.70;100.00
20017;BME280;10169;42.664;23.610;2023-11-22T00:53:48;94603.41;;;6.86;100.00
20017;BME280;10169;42.664;23.610;2023-11-22T00:55:49;94592.94;;;6.91;100.00
20017;BME280;10169;42.664;23.610;2023-11-22T00:57:50;94596.25;;;6.98;100.00
20017;BME280;10169;42.664;23.610;2023-11-22T00:59:50;94604.00;;;7.16;100.00
20017;BME280;10169;42.664;23.610;2023-11-22T01:01:50;94585.75;;;7.14;100.00
20017;BME280;10169;42.664;23.610;2023-11-22T01:03:51;94601.19;;;7.06;100.00
20017;BME280;10169;42.664;23.610;2023-11-22T01:05:51;94598.84;;;7.09;100.00
20017;BME280;10169;42.664;23.610;2023-11-22T01:07:52;94592.91;;;7.02;100.00
20017;BME280;10169;42.664;23.610;2023-11-22T01:09:52;94592.53;;;7.10;100.00
20017;BME280;10169;42.664;23.610;2023-11-22T01:11:53;94594.31;;;6.93;100.00
20017;BME280;10169;42.664;23.610;2023-11-22T01:13:53;94585.41;;;6.71;100.00
20017;BME280;10169;42.664;23.610;2023-11-22T01:15:53;94582.56;;;6.61;100.00
20017;BME280;10169;42.664;23.610;2023-11-22T01:17:54;94584.59;;;6.59;100.00
20017;BME280;10169;42.664;23.610;2023-11-22T01:19:55;94581.78;;;6.49;100.00
20017;BME280;10169;42.664;23.610;2023-11-22T01:21:55;94594.16;;;6.37;100.00
20017;BME280;10169;42.664;23.610;2023-11-22T01:23:55;94570.78;;;6.29;100.00
20017;BME280;10169;42.664;23.610;2023-11-22T01:25:55;94585.66;;;6.35;100.00
20017;BME280;10169;42.664;23.610;2023-11-22T01:27:56;94575.81;;;6.42;100.00
20017;BME280;10169;42.664;23.610;2023-11-22T01:29:56;94574.88;;;6.48;100.00
20017;BME280;10169;42.664;23.610;2023-11-22T01:31:57;94569.59;;;6.48;100.00
20017;BME280;10169;42.664;23.610;2023-11-22T01:33:57;94561.34;;;6.44;100.00
20017;BME280;10169;42.664;23.610;2023-11-22T01:35:58;94568.94;;;6.41;100.00
20017;BME280;10169;42.664;23.610;2023-11-22T01:37:59;94557.69;;;6.34;100.00
20017;BME280;10169;42.664;23.610;2023-11-22T01:39:59;94552.06;;;6.30;100.00
20017;BME280;10169;42.664;23.610;2023-11-22T01:41:59;94555.06;;;6.22;100.00
20017;BME280;10169;42.664;23.610;2023-11-22T01:44:00;94567.22;;;6.23;100.00
20017;BME280;10169;42.664;23.610;2023-11-22T01:46:00;94555.19;;;6.27;100.00
20017;BME280;10169;42.664;23.610;2023-11-22T01:48:01;94548.75;;;6.23;100.00
20017;BME280;10169;42.664;23.610;2023-11-22T01:50:06;94555.41;;;6.26;100.00
20017;BME280;10169;42.664;23.610;2023-11-22T01:52:06;94556.19;;;6.26;100.00
20017;BME280;10169;42.664;23.610;2023-11-22T01:54:07;94545.41;;;6.28;100.00
20017;BME280;10169;42.664;23.610;2023-11-22T01:56:08;94551.94;;;6.48;100.00
20017;BME280;10169;42.664;23.610;2023-11-22T01:58:09;94545.13;;;6.64;100.00
20017;BME280;10169;42.664;23.610;2023-11-22T02:00:10;94544.22;;;6.70;100.00
20017;BME280;10169;42.664;23.610;2023-11-22T02:02:14;94544.41;;;6.69;100.00
20017;BME280;10169;42.664;23.610;2023-11-22T02:04:15;94540.88;;;6.75;100.00
20017;BME280;10169;42.664;23.610;2023-11-22T02:06:15;94536.34;;;6.87;100.00
20017;BME280;10169;42.664;23.610;2023-11-22T02:08:19;94536.72;;;6.79;100.00
20017;BME280;10169;42.664;23.610;2023-11-22T02:10:19;94532.25;;;6.79;100.00
20017;BME280;10169;42.664;23.610;2023-11-22T02:12:21;94518.78;;;6.81;100.00
20017;BME280;10169;42.664;23.610;2023-11-22T02:14:21;94518.31;;;6.84;100.00
20017;BME280;10169;42.664;23.610;2023-11-22T02:16:21;94520.53;;;6.75;100.00
20017;BME280;10169;42.664;23.610;2023-11-22T02:18:22;94523.78;;;6.66;100.00
20017;BME280;10169;42.664;23.610;2023-11-22T02:20:23;94519.28;;;6.66;100.00
20017;BME280;10169;42.664;23.610;2023-11-22T02:22:23;94522.53;;;6.96;100.00
20017;BME280;10169;42.664;23.610;2023-11-22T02:24:24;94523.34;;;6.97;100.00
20017;BME280;10169;42.664;23.610;2023-11-22T02:26:24;94530.06;;;7.04;100.00
20017;BME280;10169;42.664;23.610;2023-11-22T02:28:24;94524.13;;;6.97;100.00
20017;BME280;10169;42.664;23.610;2023-11-22T02:30:25;94531.97;;;6.92;100.00
20017;BME280;10169;42.664;23.610;2023-11-22T02:32:25;94534.47;;;6.99;100.00
20017;BME280;10169;42.664;23.610;2023-11-22T02:34:28;94527.84;;;6.85;100.00
20017;BME280;10169;42.664;23.610;2023-11-22T02:36:28;94534.59;;;6.92;100.00
20017;BME280;10169;42.664;23.610;2023-11-22T02:38:28;94528.78;;;7.07;100.00
20017;BME280;10169;42.664;23.610;2023-11-22T02:40:29;94521.97;;;6.94;100.00
20017;BME280;10169;42.664;23.610;2023-11-22T02:42:29;94519.13;;;6.84;100.00
20017;BME280;10169;42.664;23.610;2023-11-22T02:44:29;94523.56;;;6.95;100.00
20017;BME280;10169;42.664;23.610;2023-11-22T02:46:29;94529.03;;;7.05;100.00
20017;BME280;10169;42.664;23.610;2023-11-22T02:48:31;94529.03;;;7.05;100.00
20017;BME280;10169;42.664;23.610;2023-11-22T02:50:31;94535.00;;;7.29;100.00
20017;BME280;10169;42.664;23.610;2023-11-22T02:52:32;94525.03;;;7.48;100.00
20017;BME280;10169;42.664;23.610;2023-11-22T02:54:32;94535.69;;;7.53;100.00
20017;BME280;10169;42.664;23.610;2023-11-22T02:56:32;94540.19;;;7.52;100.00
20017;BME280;10169;42.664;23.610;2023-11-22T02:58:33;94551.66;;;7.29;100.00
20017;BME280;10169;42.664;23.610;2023-11-22T03:00:33;94541.84;;;7.13;100.00
20017;BME280;10169;42.664;23.610;2023-11-22T03:02:34;94543.94;;;7.11;100.00
20017;BME280;10169;42.664;23.610;2023-11-22T03:04:35;94536.53;;;6.97;100.00
20017;BME280;10169;42.664;23.610;2023-11-22T03:06:35;94544.00;;;6.88;100.00
20017;BME280;10169;42.664;23.610;2023-11-22T03:08:36;94538.97;;;6.87;100.00
20017;BME280;10169;42.664;23.610;2023-11-22T03:10:36;94531.56;;;6.72;100.00
20017;BME280;10169;42.664;23.610;2023-11-22T03:12:36;94547.50;;;6.77;100.00
20017;BME280;10169;42.664;23.610;2023-11-22T03:14:37;94556.13;;;6.73;100.00
20017;BME280;10169;42.664;23.610;2023-11-22T03:16:41;94553.16;;;6.69;100.00
20017;BME280;10169;42.664;23.610;2023-11-22T03:18:42;94552.78;;;6.77;100.00
20017;BME280;10169;42.664;23.610;2023-11-22T03:20:42;94549.22;;;6.83;100.00
20017;BME280;10169;42.664;23.610;2023-11-22T03:22:43;94549.25;;;6.72;100.00
20017;BME280;10169;42.664;23.610;2023-11-22T03:24:44;94547.56;;;6.66;100.00
20017;BME280;10169;42.664;23.610;2023-11-22T03:26:44;94539.66;;;6.54;100.00
20017;BME280;10169;42.664;23.610;2023-11-22T03:28:45;94539.53;;;6.49;100.00
20017;BME280;10169;42.664;23.610;2023-11-22T03:30:45;94540.47;;;6.43;100.00
20017;BME280;10169;42.664;23.610;2023-11-22T03:32:45;94548.72;;;6.46;100.00
20017;BME280;10169;42.664;23.610;2023-11-22T03:34:46;94551.03;;;6.43;100.00
20017;BME280;10169;42.664;23.610;2023-11-22T03:36:46;94555.50;;;6.42;100.00
20017;BME280;10169;42.664;23.610;2023-11-22T03:38:47;94553.31;;;6.51;100.00
20017;BME280;10169;42.664;23.610;2023-11-22T03:40:47;94559.63;;;6.50;100.00
20017;BME280;10169;42.664;23.610;2023-11-22T03:42:47;94558.13;;;6.54;100.00
20017;BME280;10169;42.664;23.610;2023-11-22T03:44:48;94554.97;;;6.69;100.00
20017;BME280;10169;42.664;23.610;2023-11-22T03:46:48;94559.81;;;6.60;100.00
20017;BME280;10169;42.664;23.610;2023-11-22T03:48:48;94557.63;;;6.69;100.00
20017;BME280;10169;42.664;23.610;2023-11-22T03:50:49;94556.81;;;6.68;100.00
20017;BME280;10169;42.664;23.610;2023-11-22T03:52:49;94565.53;;;6.69;100.00
20017;BME280;10169;42.664;23.610;2023-11-22T03:54:50;94561.53;;;6.66;100.00
20017;BME280;10169;42.664;23.610;2023-11-22T03:56:50;94564.16;;;6.66;100.00
20017;BME280;10169;42.664;23.610;2023-11-22T03:58:50;94561.91;;;6.58;100.00
20017;BME280;10169;42.664;23.610;2023-11-22T04:00:51;94570.84;;;6.57;100.00
20017;BME280;10169;42.664;23.610;2023-11-22T04:02:52;94568.00;;;6.47;100.00
20017;BME280;10169;42.664;23.610;2023-11-22T04:04:54;94571.53;;;6.52;100.00
20017;BME280;10169;42.664;23.610;2023-11-22T04:06:54;94563.72;;;6.57;100.00
20017;BME280;10169;42.664;23.610;2023-11-22T04:08:54;94568.19;;;6.57;100.00
20017;BME280;10169;42.664;23.610;2023-11-22T04:10:54;94574.66;;;6.61;100.00
20017;BME280;10169;42.664;23.610;2023-11-22T04:12:55;94558.44;;;6.57;100.00
20017;BME280;10169;42.664;23.610;2023-11-22T04:14:55;94570.75;;;6.52;100.00
20017;BME280;10169;42.664;23.610;2023-11-22T04:16:56;94585.47;;;6.36;100.00
20017;BME280;10169;42.664;23.610;2023-11-22T04:18:56;94564.69;;;6.28;100.00
20017;BME280;10169;42.664;23.610;2023-11-22T04:20:57;94571.22;;;6.26;100.00
20017;BME280;10169;42.664;23.610;2023-11-22T04:22:59;94574.22;;;6.29;100.00
20017;BME280;10169;42.664;23.610;2023-11-22T04:24:59;94568.13;;;6.29;100.00
20017;BME280;10169;42.664;23.610;2023-11-22T04:27:01;94562.97;;;6.34;100.00
20017;BME280;10169;42.664;23.610;2023-11-22T04:29:02;94569.38;;;6.38;100.00
20017;BME280;10169;42.664;23.610;2023-11-22T04:31:04;94563.66;;;6.41;100.00
20017;BME280;10169;42.664;23.610;2023-11-22T04:33:04;94580.06;;;6.43;100.00
20017;BME280;10169;42.664;23.610;2023-11-22T04:35:06;94567.69;;;6.32;100.00
20017;BME280;10169;42.664;23.610;2023-11-22T04:37:06;94601.25;;;6.48;100.00
20017;BME280;10169;42.664;23.610;2023-11-22T04:39:07;94601.63;;;6.51;100.00
20017;BME280;10169;42.664;23.610;2023-11-22T04:41:07;94603.81;;;6.43;100.00
20017;BME280;10169;42.664;23.610;2023-11-22T04:43:08;94613.81;;;6.41;100.00
20017;BME280;10169;42.664;23.610;2023-11-22T04:45:08;94621.59;;;6.47;100.00
20017;BME280;10169;42.664;23.610;2023-11-22T04:47:09;94611.72;;;6.54;100.00
20017;BME280;10169;42.664;23.610;2023-11-22T04:49:10;94619.72;;;6.59;100.00
20017;BME280;10169;42.664;23.610;2023-11-22T04:51:10;94627.78;;;6.65;100.00
20017;BME280;10169;42.664;23.610;2023-11-22T04:53:11;94632.13;;;6.71;100.00
20017;BME280;10169;42.664;23.610;2023-11-22T04:55:11;94632.69;;;6.73;100.00
20017;BME280;10169;42.664;23.610;2023-11-22T04:57:11;94624.56;;;6.74;100.00
20017;BME280;10169;42.664;23.610;2023-11-22T04:59:12;94620.84;;;6.75;100.00
20017;BME280;10169;42.664;23.610;2023-11-22T05:01:12;94629.47;;;6.82;100.00
20017;BME280;10169;42.664;23.610;2023-11-22T05:03:12;94636.13;;;6.85;100.00
20017;BME280;10169;42.664;23.610;2023-11-22T05:05:13;94631.53;;;6.80;100.00
20017;BME280;10169;42.664;23.610;2023-11-22T05:07:13;94639.69;;;6.79;100.00
20017;BME280;10169;42.664;23.610;2023-11-22T05:09:14;94646.59;;;6.68;100.00
20017;BME280;10169;42.664;23.610;2023-11-22T05:11:14;94646.63;;;6.56;100.00
20017;BME280;10169;42.664;23.610;2023-11-22T05:13:16;94653.97;;;6.54;100.00
20017;BME280;10169;42.664;23.610;2023-11-22T05:15:16;94652.09;;;6.55;100.00
20017;BME280;10169;42.664;23.610;2023-11-22T05:17:16;94648.78;;;6.48;100.00
20017;BME280;10169;42.664;23.610;2023-11-22T05:19:16;94661.06;;;6.42;100.00
20017;BME280;10169;42.664;23.610;2023-11-22T05:21:17;94661.88;;;6.43;100.00
20017;BME280;10169;42.664;23.610;2023-11-22T05:23:17;94664.38;;;6.38;100.00
20017;BME280;10169;42.664;23.610;2023-11-22T05:25:18;94667.25;;;6.36;100.00
20017;BME280;10169;42.664;23.610;2023-11-22T05:27:18;94663.13;;;6.40;100.00
20017;BME280;10169;42.664;23.610;2023-11-22T05:29:18;94671.94;;;6.46;100.00
20017;BME280;10169;42.664;23.610;2023-11-22T05:31:19;94685.97;;;6.46;100.00
20017;BME280;10169;42.664;23.610;2023-11-22T05:33:20;94685.63;;;6.54;100.00
20017;BME280;10169;42.664;23.610;2023-11-22T05:35:20;94679.88;;;6.46;100.00
20017;BME280;10169;42.664;23.610;2023-11-22T05:37:20;94685.97;;;6.46;100.00
20017;BME280;10169;42.664;23.610;2023-11-22T05:39:21;94682.63;;;6.51;100.00
20017;BME280;10169;42.664;23.610;2023-11-22T05:41:25;94684.59;;;6.55;100.00
20017;BME280;10169;42.664;23.610;2023-11-22T05:43:28;94688.97;;;6.50;100.00
20017;BME280;10169;42.664;23.610;2023-11-22T05:45:28;94695.50;;;6.47;100.00
20017;BME280;10169;42.664;23.610;2023-11-22T05:47:29;94696.19;;;6.43;100.00
20017;BME280;10169;42.664;23.610;2023-11-22T05:49:29;94700.41;;;6.44;100.00
20017;BME280;10169;42.664;23.610;2023-11-22T05:51:29;94704.78;;;6.38;100.00
20017;BME280;10169;42.664;23.610;2023-11-22T05:53:29;94716.47;;;6.42;100.00
20017;BME280;10169;42.664;23.610;2023-11-22T05:55:30;94718.22;;;6.48;100.00
20017;BME280;10169;42.664;23.610;2023-11-22T05:57:31;94716.03;;;6.45;100.00
20017;BME280;10169;42.664;23.610;2023-11-22T05:59:31;94725.78;;;6.45;100.00
20017;BME280;10169;42.664;23.610;2023-11-22T06:01:31;94724.75;;;6.46;100.00
20017;BME280;10169;42.664;23.610;2023-11-22T06:03:32;94731.88;;;6.45;100.00
20017;BME280;10169;42.664;23.610;2023-11-22T06:05:32;94734.03;;;6.48;100.00
20017;BME280;10169;42.664;23.610;2023-11-22T06:07:33;94741.75;;;6.50;100.00
20017;BME280;10169;42.664;23.610;2023-11-22T06:09:33;94738.06;;;6.51;100.00
20017;BME280;10169;42.664;23.610;2023-11-22T06:11:34;94745.75;;;6.52;100.00
20017;BME280;10169;42.664;23.610;2023-11-22T06:13:34;94742.91;;;6.54;100.00
20017;BME280;10169;42.664;23.610;2023-11-22T06:15:34;94731.31;;;6.67;100.00
20017;BME280;10169;42.664;23.610;2023-11-22T06:17:35;94730.03;;;6.69;100.00
20017;BME280;10169;42.664;23.610;2023-11-22T06:19:35;94735.22;;;6.76;100.00
20017;BME280;10169;42.664;23.610;2023-11-22T06:21:35;94744.50;;;6.78;100.00
20017;BME280;10169;42.664;23.610;2023-11-22T06:23:38;94748.53;;;6.81;100.00
20017;BME280;10169;42.664;23.610;2023-11-22T06:25:38;94752.44;;;6.78;100.00
20017;BME280;10169;42.664;23.610;2023-11-22T06:27:42;94753.47;;;6.77;100.00
20017;BME280;10169;42.664;23.610;2023-11-22T06:29:42;94762.44;;;6.76;100.00
20017;BME280;10169;42.664;23.610;2023-11-22T06:31:44;94759.78;;;6.65;100.00
20017;BME280;10169;42.664;23.610;2023-11-22T06:33:44;94770.44;;;6.58;100.00
20017;BME280;10169;42.664;23.610;2023-11-22T06:35:45;94775.28;;;6.61;100.00
20017;BME280;10169;42.664;23.610;2023-11-22T06:37:45;94773.22;;;6.63;100.00
20017;BME280;10169;42.664;23.610;2023-11-22T06:39:45;94768.84;;;6.69;100.00
20017;BME280;10169;42.664;23.610;2023-11-22T06:41:46;94774.50;;;6.72;100.00
20017;BME280;10169;42.664;23.610;2023-11-22T06:43:47;94782.75;;;6.76;100.00
20017;BME280;10169;42.664;23.610;2023-11-22T06:45:48;94784.69;;;6.80;100.00
20017;BME280;10169;42.664;23.610;2023-11-22T06:47:48;94792.19;;;6.83;100.00
20017;BME280;10169;42.664;23.610;2023-11-22T06:49:50;94784.59;;;6.87;100.00
20017;BME280;10169;42.664;23.610;2023-11-22T06:51:50;94788.28;;;6.86;100.00
20017;BME280;10169;42.664;23.610;2023-11-22T06:53:51;94777.34;;;6.82;100.00
20017;BME280;10169;42.664;23.610;2023-11-22T06:55:54;94779.19;;;6.93;100.00
20017;BME280;10169;42.664;23.610;2023-11-22T06:57:54;94784.84;;;6.97;100.00
20017;BME280;10169;42.664;23.610;2023-11-22T06:59:57;94788.25;;;6.97;100.00
20017;BME280;10169;42.664;23.610;2023-11-22T07:01:58;94782.06;;;6.92;100.00
20017;BME280;10169;42.664;23.610;2023-11-22T07:03:58;94796.53;;;6.89;100.00
20017;BME280;10169;42.664;23.610;2023-11-22T07:05:59;94797.47;;;6.95;100.00
20017;BME280;10169;42.664;23.610;2023-11-22T07:07:59;94803.31;;;6.85;100.00
20017;BME280;10169;42.664;23.610;2023-11-22T07:09:59;94811.81;;;6.87;100.00
20017;BME280;10169;42.664;23.610;2023-11-22T07:12:00;94805.59;;;6.93;100.00
20017;BME280;10169;42.664;23.610;2023-11-22T07:14:00;94810.88;;;6.93;100.00
20017;BME280;10169;42.664;23.610;2023-11-22T07:16:01;94811.00;;;6.98;100.00
20017;BME280;10169;42.664;23.610;2023-11-22T07:18:01;94812.84;;;6.98;100.00
20017;BME280;10169;42.664;23.610;2023-11-22T07:20:01;94817.19;;;7.04;100.00
20017;BME280;10169;42.664;23.610;2023-11-22T07:22:02;94813.41;;;7.00;100.00
20017;BME280;10169;42.664;23.610;2023-11-22T07:24:04;94816.06;;;7.00;100.00
20017;BME280;10169;42.664;23.610;2023-11-22T07:26:06;94814.91;;;6.96;100.00
20017;BME280;10169;42.664;23.610;2023-11-22T07:28:07;94831.44;;;6.91;100.00
20017;BME280;10169;42.664;23.610;2023-11-22T07:30:07;94820.56;;;6.99;100.00
20017;BME280;10169;42.664;23.610;2023-11-22T07:32:08;94826.75;;;7.05;100.00
20017;BME280;10169;42.664;23.610;2023-11-22T07:34:11;94820.09;;;7.02;100.00
20017;BME280;10169;42.664;23.610;2023-11-22T07:36:13;94816.19;;;7.16;100.00
20017;BME280;10169;42.664;23.610;2023-11-22T07:38:16;94821.59;;;7.21;100.00
20017;BME280;10169;42.664;23.610;2023-11-22T07:40:17;94824.44;;;7.20;100.00
20017;BME280;10169;42.664;23.610;2023-11-22T07:42:19;94837.53;;;7.26;100.00
20017;BME280;10169;42.664;23.610;2023-11-22T07:44:19;94829.41;;;7.28;100.00
20017;BME280;10169;42.664;23.610;2023-11-22T07:46:19;94834.34;;;7.36;100.00
20017;BME280;10169;42.664;23.610;2023-11-22T07:48:20;94828.47;;;7.34;100.00
20017;BME280;10169;42.664;23.610;2023-11-22T07:50:20;94825.25;;;7.32;100.00
20017;BME280;10169;42.664;23.610;2023-11-22T07:52:22;94825.84;;;7.34;100.00
20017;BME280;10169;42.664;23.610;2023-11-22T07:54:22;94822.88;;;7.30;100.00
20017;BME280;10169;42.664;23.610;2023-11-22T07:56:23;94830.31;;;7.33;100.00
20017;BME280;10169;42.664;23.610;2023-11-22T07:58:23;94836.28;;;7.41;100.00
20017;BME280;10169;42.664;23.610;2023-11-22T08:00:23;94835.47;;;7.52;100.00
20017;BME280;10169;42.664;23.610;2023-11-22T08:02:24;94845.94;;;7.58;100.00
20017;BME280;10169;42.664;23.610;2023-11-22T08:04:25;94841.13;;;7.44;100.00
20017;BME280;10169;42.664;23.610;2023-11-22T08:06:26;94842.97;;;7.43;100.00
20017;BME280;10169;42.664;23.610;2023-11-22T08:08:27;94846.28;;;7.50;100.00
20017;BME280;10169;42.664;23.610;2023-11-22T08:10:27;94853.03;;;7.58;100.00
20017;BME280;10169;42.664;23.610;2023-11-22T08:12:28;94859.75;;;7.49;100.00
20017;BME280;10169;42.664;23.610;2023-11-22T08:14:28;94858.25;;;7.53;100.00
20017;BME280;10169;42.664;23.610;2023-11-22T08:16:32;94858.13;;;7.59;100.00
20017;BME280;10169;42.664;23.610;2023-11-22T08:18:38;94856.50;;;7.58;100.00
20017;BME280;10169;42.664;23.610;2023-11-22T08:20:39;94856.88;;;7.62;100.00
20017;BME280;10169;42.664;23.610;2023-11-22T08:22:39;94862.72;;;7.64;100.00
20017;BME280;10169;42.664;23.610;2023-11-22T08:24:40;94862.72;;;7.75;100.00
20017;BME280;10169;42.664;23.610;2023-11-22T08:26:40;94869.59;;;7.76;100.00
20017;BME280;10169;42.664;23.610;2023-11-22T08:28:40;94869.72;;;7.81;100.00
20017;BME280;10169;42.664;23.610;2023-11-22T08:30:41;94864.47;;;7.98;100.00
20017;BME280;10169;42.664;23.610;2023-11-22T08:32:42;94856.09;;;7.89;100.00
20017;BME280;10169;42.664;23.610;2023-11-22T08:34:42;94862.56;;;7.93;100.00
20017;BME280;10169;42.664;23.610;2023-11-22T08:36:45;94859.28;;;8.03;100.00
20017;BME280;10169;42.664;23.610;2023-11-22T08:38:45;94868.16;;;8.09;100.00
20017;BME280;10169;42.664;23.610;2023-11-22T08:40:46;94862.63;;;8.10;100.00
20017;BME280;10169;42.664;23.610;2023-11-22T08:42:46;94862.88;;;8.09;100.00
20017;BME280;10169;42.664;23.610;2023-11-22T08:44:47;94868.25;;;8.14;100.00
20017;BME280;10169;42.664;23.610;2023-11-22T08:46:48;94870.66;;;8.15;100.00
20017;BME280;10169;42.664;23.610;2023-11-22T08:48:49;94874.44;;;8.19;100.00
20017;BME280;10169;42.664;23.610;2023-11-22T08:50:50;94881.44;;;8.25;100.00
20017;BME280;10169;42.664;23.610;2023-11-22T08:52:53;94872.94;;;8.35;100.00
20017;BME280;10169;42.664;23.610;2023-11-22T08:54:53;94876.34;;;8.47;100.00
20017;BME280;10169;42.664;23.610;2023-11-22T08:56:54;94872.50;;;8.54;100.00
20017;BME280;10169;42.664;23.610;2023-11-22T08:58:56;94877.47;;;8.51;100.00
20017;BME280;10169;42.664;23.610;2023-11-22T09:00:57;94878.31;;;8.68;100.00
20017;BME280;10169;42.664;23.610;2023-11-22T09:02:57;94878.97;;;8.75;100.00
20017;BME280;10169;42.664;23.610;2023-11-22T09:04:58;94887.47;;;8.77;100.00
20017;BME280;10169;42.664;23.610;2023-11-22T09:06:58;94881.06;;;8.73;100.00
